Time;durP1;ratioP1;P1;durP2;ratioP2;P2;SDS_P1;SDS_P2;PMS_P1;PMS_P2;Temp;Humidity;BMP_temperature;BMP_pressure;BME280_temperature;BME280_humidity;BME280_pressure;Samples;Min_cycle;Max_cycle;Signal;HPM_P1;HPM_P2
2024/01/16 00:01:11;;;;;;;5.10;1.75;;;1.30;99.90;;;2.30;100.00;99466.41;4936492;29;20046;-78
2024/01/16 00:03:38;;;;;;;6.13;2.08;;;1.20;99.90;;;2.29;100.00;99469.25;4946838;29;20117;-78
2024/01/16 00:06:04;;;;;;;4.90;1.70;;;1.20;99.90;;;2.44;100.00;99478.13;4943953;29;20059;-77
2024/01/16 00:08:29;;;;;;;5.82;1.92;;;1.20;99.90;;;2.44;100.00;99480.81;4951320;28;20554;-79
2024/01/16 00:10:55;;;;;;;7.85;1.77;;;1.20;99.90;;;2.30;100.00;99479.00;4935957;28;20110;-79
2024/01/16 00:13:21;;;;;;;2.45;1.40;;;1.20;99.90;;;2.19;100.00;99487.59;4951579;28;20059;-78
2024/01/16 00:15:47;;;;;;;3.30;1.40;;;1.20;99.90;;;2.19;100.00;99484.91;4957442;28;20142;-79
2024/01/16 00:18:12;;;;;;;4.82;1.40;;;1.20;99.90;;;2.13;100.00;99471.19;4944416;29;20338;-78
2024/01/16 00:20:38;;;;;;;3.50;1.38;;;1.20;99.90;;;2.21;100.00;99488.25;4962726;28;20392;-77
2024/01/16 00:23:04;;;;;;;7.47;1.50;;;1.20;99.90;;;2.26;100.00;99500.09;4940800;28;20043;-77
2024/01/16 00:25:29;;;;;;;4.90;1.50;;;1.20;99.90;;;2.19;100.00;99484.91;4936344;29;20035;-79
2024/01/16 00:27:55;;;;;;;6.13;1.63;;;1.20;99.90;;;2.24;100.00;99509.38;4967390;28;20047;-77
2024/01/16 00:30:21;;;;;;;6.68;1.77;;;1.20;99.90;;;2.06;100.00;99507.94;4961550;28;20490;-78
2024/01/16 00:32:47;;;;;;;3.47;1.35;;;1.20;99.90;;;2.11;100.00;99518.13;4958083;28;20530;-78
2024/01/16 00:35:13;;;;;;;3.58;1.30;;;1.20;99.90;;;2.26;100.00;99500.09;4947434;29;20043;-78
2024/01/16 00:37:39;;;;;;;5.28;1.40;;;1.10;99.90;;;1.96;100.00;99508.22;4947138;28;20039;-79
2024/01/16 00:40:08;;;;;;;4.38;1.63;;;1.20;99.90;;;2.12;100.00;99507.19;4940365;28;20452;-79
2024/01/16 00:42:34;;;;;;;2.10;1.00;;;1.10;99.90;;;1.86;100.00;99513.94;4942140;29;20062;-78
2024/01/16 00:45:00;;;;;;;4.75;1.20;;;1.10;99.90;;;1.91;100.00;99524.09;4938173;28;20028;-78
2024/01/16 00:47:26;;;;;;;3.75;1.40;;;1.10;99.90;;;2.11;100.00;99527.03;4940302;29;20465;-78
2024/01/16 00:49:52;;;;;;;2.75;1.10;;;1.20;99.90;;;2.18;100.00;99521.72;4933687;29;20075;-78
2024/01/16 00:52:19;;;;;;;2.83;1.20;;;1.10;99.90;;;2.33;100.00;99537.84;4945447;29;20032;-79
2024/01/16 00:54:45;;;;;;;2.55;1.10;;;1.10;99.90;;;1.92;100.00;99535.72;4940702;29;20507;-79
2024/01/16 00:57:11;;;;;;;4.20;0.95;;;1.20;99.90;;;1.82;100.00;99528.75;4942276;28;20039;-79
2024/01/16 00:59:37;;;;;;;3.08;0.73;;;1.20;99.90;;;2.02;100.00;99557.75;4945365;29;20063;-78
2024/01/16 01:02:05;;;;;;;4.38;0.70;;;1.20;99.90;;;2.15;100.00;99566.03;4936288;29;20476;-77
2024/01/16 01:04:33;;;;;;;4.78;1.00;;;1.10;99.90;;;2.11;100.00;99553.94;4935445;29;20487;-77
2024/01/16 01:06:58;;;;;;;2.60;1.10;;;1.10;99.90;;;2.06;100.00;99564.44;4935690;29;20035;-79
2024/01/16 01:09:24;;;;;;;2.55;0.80;;;1.10;99.90;;;1.94;100.00;99565.94;4935168;29;20428;-78
2024/01/16 01:11:50;;;;;;;5.47;1.00;;;1.10;99.90;;;2.01;100.00;99556.09;4941480;28;20036;-79
2024/01/16 01:14:16;;;;;;;3.40;0.95;;;1.10;99.90;;;1.83;100.00;99560.00;4935411;29;20090;-80
2024/01/16 01:16:41;;;;;;;4.90;0.73;;;1.10;99.90;;;2.15;100.00;99570.56;4949499;29;20043;-78
2024/01/16 01:19:07;;;;;;;2.80;0.80;;;1.10;99.90;;;1.97;100.00;99562.88;4951081;28;20039;-78
2024/01/16 01:21:35;;;;;;;3.53;1.10;;;1.20;99.90;;;2.22;100.00;99581.41;4943775;28;20035;-77
2024/01/16 01:24:00;;;;;;;3.58;1.13;;;1.20;99.90;;;2.15;100.00;99576.78;4945405;28;20579;-77
2024/01/16 01:26:26;;;;;;;4.97;1.30;;;1.20;99.90;;;2.33;100.00;99582.78;4943890;28;20048;-78
2024/01/16 01:28:52;;;;;;;7.40;1.20;;;1.10;99.90;;;2.35;100.00;99586.94;4949155;29;20039;-79
2024/01/16 01:31:18;;;;;;;5.15;1.60;;;1.10;99.90;;;2.06;100.00;99595.91;4935236;29;20484;-79
2024/01/16 01:33:43;;;;;;;5.20;1.65;;;1.10;99.90;;;1.93;100.00;99575.03;4944430;28;20089;-78
2024/01/16 01:36:09;;;;;;;4.47;1.90;;;1.10;99.90;;;2.20;100.00;99597.72;4948067;29;20047;-78
2024/01/16 01:38:35;;;;;;;4.32;1.50;;;1.10;99.90;;;2.07;100.00;99587.63;4946447;29;20043;-79
2024/01/16 01:41:01;;;;;;;2.97;1.50;;;1.10;99.90;;;2.08;100.00;99586.59;4963550;28;20402;-78
2024/01/16 01:43:27;;;;;;;5.85;1.60;;;1.10;99.90;;;1.77;100.00;99584.13;4967364;28;20043;-80
2024/01/16 01:46:18;;;;;;;4.45;1.70;;;1.10;99.90;;;2.02;100.00;99587.38;4944659;29;20035;-79
2024/01/16 01:48:48;;;;;;;6.40;1.80;;;1.00;99.90;;;2.08;100.00;99589.28;4944778;28;20055;-79
2024/01/16 01:51:18;;;;;;;3.55;1.40;;;1.00;99.90;;;1.85;100.00;99584.03;4969571;28;20126;-79
2024/01/16 01:53:46;;;;;;;6.40;1.83;;;0.90;99.90;;;1.75;100.00;99588.88;4950956;28;20098;-80
2024/01/16 01:56:17;;;;;;;6.38;1.80;;;0.80;99.90;;;1.65;100.00;99599.91;4966956;28;20377;-79
2024/01/16 01:58:47;;;;;;;5.72;1.80;;;0.80;99.90;;;1.69;100.00;99606.56;4939471;28;20122;-79
2024/01/16 02:01:17;;;;;;;4.22;1.63;;;0.70;99.90;;;1.65;100.00;99589.13;4939274;29;20058;-78
2024/01/16 02:03:45;;;;;;;5.57;1.75;;;0.70;99.90;;;1.71;100.00;99623.34;4958800;28;20042;-79
2024/01/16 02:06:12;;;;;;;5.03;1.70;;;0.80;99.90;;;1.89;100.00;99616.78;4938850;29;20036;-78
2024/01/16 02:08:39;;;;;;;8.23;1.52;;;0.80;99.90;;;1.93;100.00;99618.09;4941926;29;20039;-78
2024/01/16 02:11:05;;;;;;;4.68;1.52;;;0.80;99.90;;;1.87;100.00;99614.28;4946760;28;20058;-77
2024/01/16 02:13:31;;;;;;;6.20;1.58;;;0.80;99.90;;;1.60;100.00;99618.44;4939319;29;20435;-78
2024/01/16 02:15:57;;;;;;;4.00;1.05;;;0.90;99.90;;;1.68;100.00;99615.66;4961938;28;20031;-78
2024/01/16 02:18:23;;;;;;;5.00;1.40;;;0.80;99.90;;;1.91;100.00;99626.31;4947069;29;20047;-79
2024/01/16 02:20:49;;;;;;;3.90;1.30;;;0.80;99.90;;;2.19;100.00;99625.66;4960924;28;20118;-79
2024/01/16 02:23:27;;;;;;;5.13;1.30;;;0.80;99.90;;;2.23;100.00;99613.50;4950607;28;20087;-79
2024/01/16 02:25:54;;;;;;;6.40;1.40;;;0.80;99.90;;;2.01;100.00;99628.75;4945491;28;20073;-82
2024/01/16 02:28:20;;;;;;;5.07;1.33;;;0.90;99.90;;;1.98;100.00;99621.88;4947855;29;20469;-79
2024/01/16 02:30:46;;;;;;;4.88;1.20;;;0.90;99.90;;;2.06;100.00;99620.94;4939557;29;20055;-78
2024/01/16 02:33:12;;;;;;;4.93;1.33;;;0.90;99.90;;;2.09;100.00;99619.75;4944913;28;20031;-80
2024/01/16 02:35:37;;;;;;;6.22;1.27;;;0.90;99.90;;;1.86;100.00;99626.91;4944271;29;20483;-79
2024/01/16 02:38:04;;;;;;;3.80;1.42;;;0.90;99.90;;;1.65;100.00;99642.91;4939196;29;20049;-78
2024/01/16 02:40:30;;;;;;;3.10;1.13;;;0.90;99.90;;;2.07;100.00;99654.06;4955613;28;20130;-80
2024/01/16 02:42:56;;;;;;;6.55;1.58;;;0.90;99.90;;;1.74;100.00;99617.59;4942935;29;20059;-80
2024/01/16 02:45:22;;;;;;;6.13;1.33;;;0.90;99.90;;;2.01;100.00;99644.88;4961661;28;20054;-80
2024/01/16 02:47:48;;;;;;;8.05;1.70;;;0.90;99.90;;;1.94;100.00;99633.19;4945987;28;20058;-79
2024/01/16 02:50:14;;;;;;;4.40;1.60;;;0.80;99.90;;;1.97;100.00;99654.34;4938471;29;20058;-79
2024/01/16 02:52:40;;;;;;;5.72;1.40;;;0.80;99.90;;;1.76;100.00;99653.22;4952320;28;20109;-78
2024/01/16 02:55:06;;;;;;;3.22;1.33;;;0.80;99.90;;;1.50;100.00;99664.41;4937090;29;20090;-77
2024/01/16 02:57:32;;;;;;;5.97;1.40;;;0.70;99.90;;;1.52;100.00;99651.59;4966193;28;20052;-78
2024/01/16 02:59:58;;;;;;;3.53;1.30;;;0.70;99.90;;;1.62;100.00;99662.94;4951823;29;20035;-79
2024/01/16 03:02:23;;;;;;;3.97;1.10;;;0.60;99.90;;;1.60;100.00;99680.28;4944944;29;20377;-79
2024/01/16 03:04:50;;;;;;;2.53;0.82;;;0.60;99.90;;;1.25;100.00;99668.09;4947606;28;20049;-79
2024/01/16 03:07:16;;;;;;;5.32;1.45;;;0.60;99.90;;;1.40;100.00;99670.84;4944390;28;20043;-79
2024/01/16 03:09:41;;;;;;;2.60;1.13;;;0.50;99.90;;;1.49;100.00;99685.06;4948718;29;20135;-79
2024/01/16 03:12:07;;;;;;;2.25;1.10;;;0.60;99.90;;;1.68;100.00;99680.19;4941190;29;20043;-80
2024/01/16 03:14:34;;;;;;;5.78;1.20;;;0.60;99.90;;;1.74;100.00;99681.31;4938947;29;20044;-78
2024/01/16 03:17:03;;;;;;;5.47;1.05;;;0.60;99.90;;;1.69;100.00;99671.09;4941990;28;20082;-80
2024/01/16 03:19:29;;;;;;;5.05;1.17;;;0.60;99.90;;;1.85;100.00;99675.50;4942091;29;20201;-78
2024/01/16 03:21:55;;;;;;;5.63;1.20;;;0.60;99.90;;;1.76;100.00;99684.66;4940942;28;20072;-79
2024/01/16 03:24:21;;;;;;;5.63;1.67;;;0.60;99.90;;;1.11;100.00;99687.72;4947536;28;20105;-79
2024/01/16 03:26:46;;;;;;;7.95;1.60;;;0.60;99.90;;;1.84;100.00;99688.09;4948397;28;20118;-79
2024/01/16 03:29:12;;;;;;;7.18;1.45;;;0.60;99.90;;;1.67;100.00;99670.47;4942009;29;20046;-79
2024/01/16 03:31:38;;;;;;;6.93;1.67;;;0.60;99.90;;;1.68;100.00;99682.88;4952062;29;20450;-79
2024/01/16 03:34:03;;;;;;;8.32;2.30;;;0.50;99.90;;;1.92;100.00;99707.88;4950214;28;20056;-79
2024/01/16 03:36:29;;;;;;;6.78;2.05;;;0.50;99.90;;;1.63;100.00;99688.81;4937218;29;20046;-79
2024/01/16 03:38:55;;;;;;;6.18;2.15;;;0.50;99.90;;;1.57;100.00;99693.03;4940379;29;20106;-79
2024/01/16 03:41:21;;;;;;;7.15;1.65;;;0.50;99.90;;;1.60;100.00;99688.34;4948470;28;20483;-79
2024/01/16 03:43:46;;;;;;;8.30;2.25;;;0.50;99.90;;;1.65;100.00;99702.06;4936786;29;20046;-80
2024/01/16 03:46:12;;;;;;;7.13;2.05;;;0.40;99.90;;;1.45;100.00;99697.19;4942583;29;20051;-81
2024/01/16 03:48:39;;;;;;;7.18;2.47;;;0.40;99.90;;;1.14;100.00;99700.78;4936369;29;20039;-82
2024/01/16 03:51:06;;;;;;;9.02;2.10;;;0.30;99.90;;;1.29;100.00;99707.03;4937268;28;20448;-81
2024/01/16 03:53:32;;;;;;;8.48;2.45;;;0.30;99.90;;;1.17;100.00;99716.53;4943999;29;20075;-79
2024/01/16 03:55:58;;;;;;;6.50;2.22;;;0.20;99.90;;;0.47;100.00;99723.59;4940321;28;20035;-81
2024/01/16 03:58:24;;;;;;;9.63;2.45;;;0.20;99.90;;;0.60;100.00;99709.63;4939083;29;20429;-81
2024/01/16 04:00:51;;;;;;;9.32;2.22;;;0.10;99.90;;;0.71;100.00;99715.44;4946432;28;20035;-81
2024/01/16 04:03:17;;;;;;;6.03;1.70;;;0.20;99.90;;;0.70;100.00;99721.84;4966398;28;20166;-81
2024/01/16 04:05:43;;;;;;;7.82;1.75;;;0.10;99.90;;;0.70;100.00;99715.63;4936520;29;20047;-80
2024/01/16 04:08:09;;;;;;;8.07;2.20;;;0.10;99.90;;;0.66;100.00;99722.34;4940072;28;20157;-81
2024/01/16 04:10:35;;;;;;;9.13;2.10;;;0.10;99.90;;;0.76;100.00;99738.25;4966707;28;20427;-81
2024/01/16 04:13:02;;;;;;;11.23;1.73;;;0.20;99.90;;;0.81;100.00;99742.09;4959411;28;20039;-81
2024/01/16 04:15:28;;;;;;;11.55;2.50;;;0.10;99.90;;;0.71;100.00;99722.69;4942692;28;20059;-81
2024/01/16 04:17:54;;;;;;;7.72;1.90;;;0.10;99.90;;;0.75;100.00;99739.25;4936496;29;20035;-81
2024/01/16 04:20:21;;;;;;;8.93;2.10;;;0.10;99.90;;;0.47;100.00;99734.34;4964380;28;20047;-79
2024/01/16 04:22:46;;;;;;;6.78;1.40;;;0.10;99.90;;;0.73;100.00;99726.03;4944529;29;20089;-81
2024/01/16 04:25:12;;;;;;;6.32;1.30;;;0.10;99.90;;;0.62;100.00;99732.63;4940723;29;20503;-81
2024/01/16 04:27:38;;;;;;;4.32;1.52;;;0.10;99.90;;;0.67;100.00;99724.03;4950630;28;20094;-79
2024/01/16 04:30:05;;;;;;;8.52;1.55;;;0.20;99.90;;;0.70;100.00;99729.06;4936172;29;20050;-80
2024/01/16 04:32:30;;;;;;;4.20;1.30;;;0.10;99.90;;;0.69;100.00;99732.75;4942722;28;20530;-81
2024/01/16 04:34:56;;;;;;;9.00;2.17;;;0.10;99.90;;;0.68;100.00;99736.47;4947027;28;20035;-80
2024/01/16 04:37:22;;;;;;;9.60;1.65;;;0.10;99.90;;;0.61;100.00;99736.31;4963393;28;20062;-79
2024/01/16 04:39:48;;;;;;;10.02;1.98;;;0.10;99.90;;;0.62;100.00;99737.97;4942593;28;20059;-79
2024/01/16 04:42:13;;;;;;;9.10;1.73;;;0.10;99.90;;;0.55;100.00;99732.47;4956624;28;20122;-80
2024/01/16 04:44:39;;;;;;;12.88;2.00;;;0.10;99.90;;;0.75;100.00;99731.19;4960302;28;20048;-80
2024/01/16 04:47:05;;;;;;;11.10;2.20;;;0.10;99.90;;;0.71;100.00;99731.56;4945732;29;20088;-80
2024/01/16 04:49:31;;;;;;;9.60;1.88;;;0.10;99.90;;;0.79;100.00;99733.38;4939593;29;20039;-79
2024/01/16 04:51:56;;;;;;;11.32;1.52;;;0.10;99.90;;;0.61;100.00;99733.63;4956461;28;20062;-78
2024/01/16 04:54:22;;;;;;;8.52;1.65;;;0.10;99.90;;;0.75;100.00;99742.78;4945346;29;20059;-79
2024/01/16 04:56:48;;;;;;;7.75;2.15;;;0.20;99.90;;;0.92;100.00;99748.06;4941192;29;20144;-80
2024/01/16 04:59:14;;;;;;;8.32;1.95;;;0.20;99.90;;;0.70;100.00;99742.50;4957352;28;20545;-80
2024/01/16 05:01:39;;;;;;;7.68;1.90;;;0.30;99.90;;;0.80;100.00;99732.34;4940479;29;20055;-79
2024/01/16 05:04:07;;;;;;;8.82;2.65;;;0.30;99.90;;;0.73;100.00;99734.09;4934362;29;20078;-80
2024/01/16 05:06:34;;;;;;;8.75;1.90;;;0.30;99.90;;;0.69;100.00;99730.06;4941191;29;20047;-79
2024/01/16 05:09:00;;;;;;;9.75;1.80;;;0.30;99.90;;;1.21;100.00;99747.41;4942408;28;20055;-79
2024/01/16 05:11:25;;;;;;;10.77;2.10;;;0.30;99.90;;;1.30;100.00;99748.19;4950156;28;20047;-79
2024/01/16 05:13:57;;;;;;;9.80;2.15;;;0.40;99.90;;;1.40;100.00;99729.97;4940834;28;20031;-78
2024/01/16 05:16:24;;;;;;;7.65;2.28;;;0.40;99.90;;;1.52;100.00;99748.38;4939866;29;20046;-79
2024/01/16 05:18:50;;;;;;;7.80;2.83;;;0.40;99.90;;;1.58;100.00;99737.72;4943647;28;20435;-80
2024/01/16 05:21:16;;;;;;;9.35;3.03;;;0.40;99.90;;;1.58;100.00;99748.50;4945511;29;20048;-79
2024/01/16 05:23:41;;;;;;;9.73;2.10;;;0.30;99.90;;;1.61;100.00;99741.09;4939811;29;20094;-80
2024/01/16 05:26:07;;;;;;;6.70;1.90;;;0.20;99.90;;;1.41;100.00;99755.84;4962169;28;20038;-80
2024/01/16 05:28:33;;;;;;;6.47;2.00;;;0.10;99.90;;;1.34;100.00;99751.38;4948027;28;20036;-81
2024/01/16 05:31:00;;;;;;;7.57;1.90;;;0.10;99.90;;;1.21;100.00;99744.72;4945975;28;20036;-80
2024/01/16 05:33:25;;;;;;;8.77;2.05;;;0.00;99.90;;;0.90;100.00;99742.88;4946350;28;20040;-79
2024/01/16 05:35:51;;;;;;;7.90;2.00;;;0.00;99.90;;;0.74;100.00;99759.91;4952375;28;20038;-79
2024/01/16 05:38:17;;;;;;;7.60;2.63;;;-0.10;99.90;;;0.53;100.00;99755.09;4957862;28;20483;-81
2024/01/16 05:40:43;;;;;;;6.45;2.10;;;-0.10;99.90;;;0.51;100.00;99759.81;4943825;28;20038;-82
2024/01/16 05:43:09;;;;;;;7.07;1.90;;;-0.10;99.90;;;0.45;100.00;99749.78;4968531;28;20062;-79
2024/01/16 05:45:34;;;;;;;7.75;1.65;;;-0.20;99.90;;;0.32;100.00;99747.63;4963224;28;20457;-79
2024/01/16 05:48:00;;;;;;;10.82;2.10;;;-0.20;99.90;;;0.39;100.00;99741.41;4954728;28;20091;-81
2024/01/16 05:50:26;;;;;;;5.63;1.85;;;-0.20;99.90;;;0.51;100.00;99755.31;4938255;29;20054;-80
2024/01/16 05:52:52;;;;;;;7.20;2.00;;;-0.20;99.90;;;0.48;100.00;99752.13;4948519;28;20035;-80
2024/01/16 05:55:17;;;;;;;8.73;2.00;;;-0.30;99.90;;;0.31;100.00;99733.41;4956326;28;20047;-81
2024/01/16 05:57:43;;;;;;;7.45;1.80;;;-0.30;99.90;;;0.32;100.00;99744.97;4959806;28;20031;-80
2024/01/16 06:00:10;;;;;;;9.15;1.92;;;-0.20;99.90;;;0.44;100.00;99757.00;4957238;28;20386;-80
2024/01/16 06:02:36;;;;;;;8.48;1.98;;;-0.20;99.90;;;0.48;100.00;99763.69;4956176;28;20035;-81
2024/01/16 06:05:02;;;;;;;11.25;2.20;;;-0.10;99.90;;;0.63;100.00;99760.28;4953392;28;20039;-80
2024/01/16 06:07:28;;;;;;;9.23;1.90;;;-0.10;99.90;;;0.59;100.00;99769.69;4954275;28;20047;-83
2024/01/16 06:09:54;;;;;;;9.23;2.30;;;-0.10;99.90;;;0.60;100.00;99756.13;4952906;29;20035;-81
2024/01/16 06:12:20;;;;;;;9.05;2.47;;;-0.10;99.90;;;0.43;100.00;99742.75;4967821;28;20666;-82
2024/01/16 06:14:46;;;;;;;7.20;1.95;;;-0.10;99.90;;;0.60;100.00;99760.63;4952824;29;20035;-82
2024/01/16 06:17:11;;;;;;;8.48;1.95;;;-0.10;99.90;;;0.62;100.00;99747.88;4952557;28;20089;-81
2024/01/16 06:19:37;;;;;;;7.88;2.45;;;-0.10;99.90;;;0.56;100.00;99757.47;4952559;29;20122;-82
2024/01/16 06:22:03;;;;;;;7.80;2.28;;;0.00;99.90;;;0.59;100.00;99738.34;4960872;28;20040;-80
2024/01/16 06:24:36;;;;;;;5.47;2.17;;;-0.10;99.90;;;0.48;100.00;99720.75;4946719;29;20127;-82
2024/01/16 06:27:04;;;;;;;7.40;2.28;;;0.00;99.90;;;0.61;100.00;99744.38;4950482;28;20114;-81
2024/01/16 06:29:30;;;;;;;8.82;2.20;;;0.00;99.90;;;0.65;100.00;99744.84;4931944;29;20054;-80
2024/01/16 06:31:56;;;;;;;8.55;2.42;;;-0.10;99.90;;;0.61;100.00;99736.31;4952184;29;20051;-79
2024/01/16 06:34:21;;;;;;;10.95;2.78;;;-0.10;99.90;;;0.59;100.00;99749.06;4965463;28;20045;-79
2024/01/16 06:36:47;;;;;;;9.63;2.80;;;-0.10;99.90;;;0.63;100.00;99747.72;4950404;28;20054;-79
2024/01/16 06:39:13;;;;;;;10.88;2.60;;;-0.10;99.90;;;0.66;100.00;99757.25;4953100;28;20063;-81
2024/01/16 06:41:41;;;;;;;11.32;3.20;;;0.00;99.90;;;0.53;100.00;99741.69;4950521;28;20156;-79
2024/01/16 06:44:07;;;;;;;14.18;3.47;;;0.00;99.90;;;0.60;100.00;99747.22;4951620;28;20043;-78
2024/01/16 06:46:32;;;;;;;10.70;2.92;;;0.00;99.90;;;0.57;100.00;99745.72;4965241;28;20066;-80
2024/01/16 06:48:58;;;;;;;10.40;3.00;;;0.00;99.90;;;0.59;100.00;99743.72;4950426;28;20090;-79
2024/01/16 06:51:24;;;;;;;9.52;3.20;;;0.10;99.90;;;0.84;100.00;99773.97;4950818;29;20027;-83
2024/01/16 06:53:49;;;;;;;11.07;3.28;;;0.10;99.90;;;0.90;100.00;99780.50;4952815;28;20487;-81
2024/01/16 06:56:15;;;;;;;7.30;2.90;;;0.20;99.90;;;0.95;100.00;99753.13;4956566;28;20066;-81
2024/01/16 06:58:41;;;;;;;10.32;3.45;;;0.20;99.90;;;1.04;100.00;99772.69;4956462;28;20031;-81
2024/01/16 07:01:08;;;;;;;12.90;3.03;;;0.30;99.90;;;0.84;100.00;99765.91;4971437;28;20043;-81
2024/01/16 07:03:34;;;;;;;10.07;3.38;;;0.30;99.90;;;1.19;100.00;99784.38;4968029;28;20035;-83
2024/01/16 07:06:00;;;;;;;8.73;3.05;;;0.40;99.90;;;1.11;100.00;99771.00;4966727;28;20063;-81
2024/01/16 07:08:25;;;;;;;10.25;3.05;;;0.40;99.90;;;1.76;100.00;99768.88;4968162;28;20040;-79
2024/01/16 07:10:51;;;;;;;15.18;3.63;;;0.40;99.90;;;1.73;100.00;99750.41;4950223;29;20431;-81
2024/01/16 07:13:17;;;;;;;13.82;3.53;;;0.40;99.90;;;1.85;100.00;99781.22;4947550;28;20090;-80
2024/01/16 07:15:42;;;;;;;8.68;3.20;;;0.30;99.90;;;1.81;100.00;99777.22;4944811;28;21628;-81
2024/01/16 07:18:08;;;;;;;9.27;3.97;;;0.20;99.90;;;1.53;100.00;99767.00;4944214;28;20032;-78
2024/01/16 07:20:34;;;;;;;9.60;3.40;;;0.20;99.90;;;1.53;100.00;99760.81;4943051;29;20447;-80
2024/01/16 07:23:00;;;;;;;12.32;3.65;;;0.20;99.90;;;1.75;100.00;99794.09;4943780;29;20047;-79
2024/01/16 07:25:25;;;;;;;9.45;4.10;;;0.20;99.90;;;1.77;100.00;99793.91;4947447;29;20039;-82
2024/01/16 07:27:51;;;;;;;11.07;3.40;;;0.20;99.90;;;1.61;100.00;99776.06;4939578;28;20094;-81
2024/01/16 07:30:17;;;;;;;8.60;3.50;;;0.10;99.90;;;1.63;100.00;99782.09;4945165;29;20395;-80
2024/01/16 07:32:42;;;;;;;14.48;3.80;;;0.10;99.90;;;1.48;100.00;99760.53;4944728;28;20039;-80
2024/01/16 07:35:08;;;;;;;10.48;3.80;;;0.10;99.90;;;1.62;100.00;99777.72;4933198;28;20043;-79
2024/01/16 07:37:34;;;;;;;15.68;3.95;;;0.10;99.90;;;1.71;100.00;99787.41;4944157;28;20043;-80
2024/01/16 07:40:00;;;;;;;11.73;3.72;;;0.10;99.90;;;1.50;100.00;99767.38;4958514;28;20039;-84
2024/01/16 07:42:26;;;;;;;12.43;3.80;;;0.10;99.90;;;1.71;100.00;99779.34;4940040;29;20055;-82
2024/01/16 07:44:52;;;;;;;9.10;4.07;;;0.20;99.90;;;1.80;100.00;99799.75;4940802;29;20491;-82
2024/01/16 07:47:18;;;;;;;11.05;3.67;;;0.20;99.90;;;1.72;100.00;99781.00;4947485;29;20054;-84
2024/01/16 07:49:44;;;;;;;15.75;4.10;;;0.20;99.90;;;1.74;100.00;99759.31;4951987;29;20074;-83
2024/01/16 07:52:12;;;;;;;9.95;3.80;;;0.20;99.90;;;1.76;100.00;99784.19;4949930;28;20236;-84
2024/01/16 07:54:37;;;;;;;11.75;3.78;;;0.20;99.90;;;1.72;100.00;99767.56;4942470;29;20063;-83
2024/01/16 07:57:03;;;;;;;10.10;3.83;;;0.30;99.90;;;1.81;100.00;99777.22;4941451;29;20059;-85
2024/01/16 07:59:29;;;;;;;9.45;3.80;;;0.30;99.90;;;1.88;100.00;99782.72;4952260;29;20039;-82
2024/01/16 08:01:55;;;;;;;7.55;3.13;;;0.30;99.90;;;1.92;100.00;99791.28;4947416;28;20027;-81
2024/01/16 08:04:20;;;;;;;12.20;4.10;;;0.30;99.90;;;1.80;100.00;99777.41;4948855;29;20098;-83
2024/01/16 08:06:47;;;;;;;12.55;4.00;;;0.30;99.90;;;1.99;100.00;99794.91;4966164;28;20039;-83
2024/01/16 08:09:13;;;;;;;9.82;3.67;;;0.40;99.90;;;2.04;100.00;99789.81;4967701;28;20039;-83
2024/01/16 08:11:39;;;;;;;9.85;3.55;;;0.40;99.90;;;2.01;100.00;99792.88;4951675;29;20439;-85
2024/01/16 08:14:05;;;;;;;8.55;3.95;;;0.40;99.90;;;1.96;100.00;99795.28;4957059;28;20067;-84
2024/01/16 08:16:31;;;;;;;10.05;3.50;;;0.40;99.90;;;2.03;100.00;99793.53;4962813;28;20452;-82
2024/01/16 08:18:57;;;;;;;9.52;3.67;;;0.40;99.90;;;2.06;100.00;99797.72;4932488;29;20127;-84
2024/01/16 08:21:22;;;;;;;9.70;3.80;;;0.40;99.90;;;2.06;100.00;99803.91;4952410;29;20517;-85
2024/01/16 08:23:48;;;;;;;10.55;3.17;;;0.50;99.90;;;2.01;100.00;99798.25;4941528;29;20051;-83
2024/01/16 08:26:14;;;;;;;10.98;3.60;;;0.50;99.90;;;1.89;100.00;99789.78;4936172;29;20444;-81
2024/01/16 08:28:40;;;;;;;9.90;3.72;;;0.50;99.90;;;2.10;100.00;99810.59;4962637;28;20043;-82
2024/01/16 08:31:06;;;;;;;7.63;2.90;;;0.60;99.90;;;2.04;100.00;99789.00;4940555;29;20487;-82
2024/01/16 08:33:31;;;;;;;13.68;3.63;;;0.60;99.90;;;2.09;100.00;99798.16;4954853;28;20122;-83
2024/01/16 08:35:57;;;;;;;9.45;3.38;;;0.60;99.90;;;2.36;100.00;99798.59;4964426;28;20493;-81
2024/01/16 08:38:23;;;;;;;8.88;3.03;;;0.70;99.90;;;2.44;100.00;99806.59;4934959;28;20036;-82
2024/01/16 08:40:49;;;;;;;10.25;3.10;;;0.70;99.90;;;2.39;100.00;99770.47;4945405;29;20039;-82
2024/01/16 08:43:14;;;;;;;8.05;3.45;;;0.80;99.90;;;2.55;100.00;99808.00;4961653;28;20035;-81
2024/01/16 08:45:40;;;;;;;7.80;3.03;;;0.80;99.90;;;2.43;100.00;99783.38;4932404;28;20054;-82
2024/01/16 08:48:06;;;;;;;10.57;3.03;;;0.80;99.90;;;2.61;100.00;99806.41;4941289;29;20399;-81
2024/01/16 08:50:32;;;;;;;10.05;3.60;;;0.90;99.90;;;2.86;100.00;99803.44;4943169;29;20040;-82
2024/01/16 08:52:57;;;;;;;11.23;3.63;;;1.00;99.90;;;2.90;100.00;99799.34;4940178;29;20040;-82
2024/01/16 08:55:23;;;;;;;11.50;3.42;;;1.00;99.90;;;3.00;100.00;99794.50;4965846;28;20502;-81
2024/01/16 08:57:49;;;;;;;9.43;3.90;;;1.10;99.90;;;3.00;100.00;99815.22;4946647;29;20181;-81
2024/01/16 09:00:15;;;;;;;9.13;3.92;;;1.10;99.90;;;2.86;100.00;99798.91;4939209;28;20047;-82
2024/01/16 09:02:40;;;;;;;7.13;3.17;;;1.20;99.90;;;2.99;100.00;99779.38;4944283;28;20031;-81
2024/01/16 09:05:07;;;;;;;9.65;3.58;;;1.20;99.90;;;2.97;100.00;99799.44;4947561;28;20094;-79
2024/01/16 09:07:32;;;;;;;10.60;3.17;;;1.20;99.90;;;3.05;100.00;99803.88;4938316;29;20490;-80
2024/01/16 09:09:58;;;;;;;7.65;3.35;;;1.20;99.90;;;2.82;100.00;99807.53;4957803;28;20036;-80
2024/01/16 09:12:26;;;;;;;10.50;3.25;;;1.20;99.90;;;2.93;100.00;99806.22;4967118;28;20043;-81
2024/01/16 09:14:51;;;;;;;7.88;3.60;;;1.20;99.90;;;2.76;100.00;99803.72;4942109;29;20419;-81
2024/01/16 09:17:17;;;;;;;7.78;3.38;;;1.20;99.90;;;2.92;100.00;99802.72;4939338;29;20039;-81
2024/01/16 09:19:43;;;;;;;7.50;3.15;;;1.20;99.90;;;2.99;100.00;99809.00;4946569;29;20051;-81
2024/01/16 09:22:08;;;;;;;9.90;3.88;;;1.30;99.90;;;3.45;100.00;99810.59;4956271;28;20031;-82
2024/01/16 09:24:34;;;;;;;9.02;3.30;;;1.40;99.90;;;3.22;100.00;99808.06;4936352;29;20047;-81
2024/01/16 09:27:00;;;;;;;7.90;3.38;;;1.40;99.90;;;3.26;100.00;99825.50;4938974;29;20536;-79
2024/01/16 09:29:25;;;;;;;10.70;3.30;;;1.60;99.90;;;3.62;100.00;99801.41;4940261;28;20043;-81
2024/01/16 09:31:51;;;;;;;10.27;3.60;;;1.70;99.90;;;3.52;100.00;99816.06;4940087;29;20071;-81
2024/01/16 09:34:19;;;;;;;10.43;3.30;;;1.70;99.90;;;3.51;100.00;99806.28;4944281;29;20518;-81
2024/01/16 09:36:46;;;;;;;6.80;3.22;;;1.80;99.90;;;3.61;100.00;99795.19;4936309;29;20039;-81
2024/01/16 09:39:13;;;;;;;6.93;3.45;;;1.90;99.90;;;3.51;100.00;99797.34;4935999;29;20051;-81
2024/01/16 09:41:39;;;;;;;10.27;3.20;;;1.80;99.90;;;3.31;100.00;99796.13;4956854;28;20039;-82
2024/01/16 09:44:06;;;;;;;9.68;3.15;;;1.80;99.90;;;3.46;100.00;99808.75;4950668;28;20063;-81
2024/01/16 09:46:35;;;;;;;9.05;3.10;;;1.70;99.90;;;3.47;100.00;99810.41;4965539;28;20039;-82
2024/01/16 09:49:04;;;;;;;8.57;3.20;;;1.80;99.90;;;3.54;100.00;99792.41;4965727;28;20043;-81
2024/01/16 09:51:30;;;;;;;8.10;3.22;;;1.90;99.90;;;3.68;100.00;99809.59;4961297;28;20122;-82
2024/01/16 09:53:56;;;;;;;7.78;3.00;;;1.90;99.90;;;3.75;100.00;99801.56;4965179;28;20051;-81
2024/01/16 09:56:28;;;;;;;10.32;3.50;;;2.00;99.90;;;3.89;100.00;99811.44;4943288;29;20040;-81
2024/01/16 09:59:05;;;;;;;10.55;3.60;;;2.00;99.90;;;3.90;100.00;99806.88;4936312;28;20170;-80
2024/01/16 10:01:33;;;;;;;11.90;3.38;;;2.10;99.90;;;3.82;100.00;99817.78;4935812;28;20035;-80
2024/01/16 10:03:59;;;;;;;7.60;2.85;;;2.00;99.90;;;4.17;100.00;99829.53;4938964;29;20115;-81
2024/01/16 10:06:27;;;;;;;11.07;3.75;;;2.10;99.90;;;4.49;100.00;99820.22;4948861;28;20051;-80
2024/01/16 10:08:53;;;;;;;8.95;3.00;;;2.30;99.90;;;4.61;100.00;99803.25;4942932;29;20046;-81
2024/01/16 10:11:19;;;;;;;7.95;3.22;;;2.60;99.90;;;4.66;100.00;99801.84;4943968;29;20035;-83
2024/01/16 10:13:45;;;;;;;12.32;3.50;;;2.80;99.90;;;4.63;100.00;99811.19;4966959;28;20031;-81
2024/01/16 10:16:10;;;;;;;9.80;2.65;;;2.90;99.90;;;4.41;100.00;99805.84;4948508;29;20459;-80
2024/01/16 10:18:37;;;;;;;11.63;3.60;;;2.80;99.90;;;4.93;100.00;99816.31;4945779;28;20039;-81